Tiempo atmosférico en la estación meteorológica de Abia De Obispalia, Cuenca (1020 m.)



Fecha
DESCASC
Temp. máxima en grados centígrados (hora)
DESCASC
Temp. mínima en grados centígrados (hora)
DESCASC
Temp. media en grados centígrados
DESCASC
Racha de viento máxima en m/sg (hora)
DESCASC
Velocidad máxima media en intervalos de 10 minutos(hora)
DESCASC
Precipitaciones diarias en mm
DESCASC
Precipitaciones de 00:00 a 06:00 en mm
DESCASC
Precipitaciones de 06:00 a 12:00 en mm
DESCASC
Precipitaciones de 12:00 a 18:00 en mm
DESCASC
Precipitaciones de 18:00 a 24:00 en mm
DESCASC
24-09-2020 19 (15:30) 11.8 (03:00) 15.4 12.22 (14:30) 6.39 (15:40) 0 0 0 0 0
23-09-2020 21.8 (16:40) 10.4 (00:00) 16.1 8.61 (14:50) 4.72 (16:50) 0.2 0 0.2 0 0
22-09-2020 23.1 (16:10) 8.6 (00:00) 15.9 8.89 (16:30) 3.89 (17:30) 0 0 0 0 0
21-09-2020 22.6 (15:50) 8.9 (00:00) 15.8 6.67 (13:20) 3.33 (13:10) 0 0 0 0 0
20-09-2020 20.3 (17:20) 12.1 (00:00) 16.2 5.83 (12:40) 3.06 (13:10) 0 0 0 0 0
19-09-2020 20 (16:20) 12.7 (00:00) 16.3 10.56 (15:40) 5.28 (15:40) 5.2 5.2 0 0 0
18-09-2020 20.4 (16:30) 13.1 (00:00) 16.8 9.72 (03:30) 6.11 (08:30) 8 0.8 0 3.6 3.6
17-09-2020 24.2 (12:50) 15.7 (00:00) 20 15.28 (22:00) 9.17 (22:00) 2.8 0 0 0 2.8
16-09-2020 29.6 (16:00) 14 (00:00) 21.8 8.89 (14:50) 4.72 (23:20) 0 0 0 0 0
15-09-2020 27.5 (14:40) 15.5 (00:00) 21.5 8.61 (01:10) 5.83 (02:30) 0 0 0 0 0
14-09-2020 27.3 (15:10) 16 (00:00) 21.6 11.94 (12:00) 7.22 (11:40) 0 0 0 0 0
13-09-2020 29.2 (15:10) 14.7 (00:00) 22 10.83 (15:30) 5.83 (03:40) 0 0 0 0 0
12-09-2020 31.3 (16:20) 15.4 (00:00) 23.3 8.89 (23:59) 5 (23:10) 0 0 0 0 0
11-09-2020 30.1 (17:20) 11.2 (00:00) 20.7 7.22 (01:00) 5.28 (01:00) 0 0 0 0 0
10-09-2020 28.6 (16:40) 9.8 (00:00) 19.2 7.22 (17:30) 3.61 (18:40) 0 0 0 0 0
09-09-2020 27.2 (17:30) 8.9 (00:00) 18.1 6.94 (15:10) 3.33 (14:10) 0 0 0 0 0
08-09-2020 24.6 (16:30) 8.3 (00:00) 16.5 8.89 (15:20) 4.44 (17:00) 0 0 0 0 0
07-09-2020 26 (17:20) 10.5 (07:20) 18.3 8.33 (15:10) 4.44 (15:30) 0 0 0 0 0
06-09-2020 30.5 (16:40) 16.6 (00:00) 23.6 8.61 (00:10) 5.83 (00:10) 0 0 0 0 0
05-09-2020 31.9 (17:50) 10.9 (00:00) 21.4 10.28 (22:20) 6.67 (23:50) 0 0 0 0 0
04-09-2020 29 (17:10) 12 (00:00) 20.5 9.17 (15:40) 4.72 (23:20) 0 0 0 0 0
03-09-2020 29.5 (18:10) 12.9 (00:00) 21.2 8.61 (22:50) 5.28 (22:50) 0 0 0 0 0
02-09-2020 27.6 (18:20) 10.5 (00:00) 19.1 7.5 (23:40) 4.72 (23:50) 0 0 0 0 0
01-09-2020 24.4 (15:20) 8.6 (00:00) 16.5 6.11 (02:00) 2.78 (02:00) 0 0 0 0 0
31-08-2020 25.2 (17:20) 5.7 (00:00) 15.5 6.11 (13:50) 2.78 (16:40) 0 0 0 0 0
30-08-2020 22.8 (17:40) 5.4 (00:00) 14.1 11.11 (17:40) 3.89 (10:40) 0 0 0 0 0
29-08-2020 22.7 (16:20) 12.3 (00:00) 17.5 12.5 (16:30) 5.83 (16:40) 0 0 0 0 0
28-08-2020 31.6 (17:40) 16.4 (00:00) 24 11.11 (19:10) 5.56 (01:30) 0 0 0 0 0

Gráficas

Temp. máximas Temp. mínimas Temp. medias Precipitaciones Rachas de viento máximas Velocidades máximas media en intervalos de 10 minutos

Datos horarios

Fecha y hora oficial Temperatura (ºC) Velocidad del viento (km/h) Dirección del viento Racha (km/h) Dirección de racha Precipitación (mm) Presión (hPa) Tendencia (hPa) Humedad (%)
2020-09-26 23:00:00 12.4 10 Noroeste 16 Noroeste 0 -- -- 60
2020-09-26 22:00:00 12.8 6 Noroeste 15 Noroeste 0 -- -- 57
2020-09-26 21:00:00 14.1 7 Oeste 12 Noroeste 0 -- -- 53
2020-09-26 20:00:00 14.8 8 Noroeste 31 Noroeste 0 -- -- 49
2020-09-26 19:00:00 16.2 14 Noroeste 32 Noroeste 0 -- -- 45
2020-09-26 18:00:00 16.6 15 Noroeste 31 Noroeste 0 -- -- 45
2020-09-26 17:00:00 16.5 10 Noroeste 35 Noroeste 0 -- -- 45
2020-09-26 16:00:00 16.9 15 Noroeste 37 Oeste 0 -- -- 43
2020-09-26 15:00:00 17.1 14 Norte 36 Norte 0 -- -- 44
2020-09-26 14:00:00 15.4 15 Noroeste 32 Noroeste 0 -- -- 47
2020-09-26 13:00:00 13.8 20 Noroeste 33 Noroeste 0 -- -- 49
2020-09-26 12:00:00 12.7 16 Noroeste 37 Noroeste 0 -- -- 52
2020-09-26 11:00:00 10.8 14 Noroeste 29 Noroeste 0 -- -- 56
2020-09-26 10:00:00 8.1 10 Norte 21 Norte 0 -- -- 67
2020-09-26 09:00:00 6 7 Norte 18 Noroeste 0 -- -- 76
2020-09-26 08:00:00 5.8 6 Norte 17 Norte 0 -- -- 76
2020-09-26 07:00:00 5.8 0 Calma 22 Norte 0 -- -- 76
2020-09-26 06:00:00 6.4 9 Norte 21 Norte 0 -- -- 73
2020-09-26 05:00:00 7.1 6 Norte 27 Noroeste 0 -- -- 69
2020-09-26 04:00:00 7.6 9 Norte 23 Norte 0 -- -- 66
2020-09-26 03:00:00 8 3 Noroeste 17 Norte 0 -- -- 66
2020-09-26 02:00:00 9.1 10 Norte 22 Norte 0 -- -- 61
2020-09-26 01:00:00 8.7 7 Noroeste 17 Norte 0 -- -- 61
2020-09-26 00:00:00 9.6 4 Noroeste 22 Noroeste 0 -- -- 58
2020-09-25 23:00:00 10.3 5 Oeste 15 Noroeste 0 -- -- 55
2020-09-25 22:00:00 10.6 8 Noroeste 23 Noroeste 0 -- -- 52
2020-09-25 21:00:00 12.1 14 Norte 29 Norte 0 -- -- 46
2020-09-25 20:00:00 12.8 14 Norte 39 Noroeste 0 -- -- 44
2020-09-25 19:00:00 14.2 21 Noroeste 40 Norte 0 -- -- 39
2020-09-25 18:00:00 16.1 21 Norte 53 Noroeste 0 -- -- 35
2020-09-25 17:00:00 16.8 27 Norte 58 Noroeste 0 -- -- 35
2020-09-25 16:00:00 16.8 27 Noroeste 49 Norte 0 -- -- 34
2020-09-25 15:00:00 16.5 19 Noroeste 46 Noroeste 0 -- -- 34
2020-09-25 14:00:00 16 21 Noroeste 44 Norte 0 -- -- 36
2020-09-25 13:00:00 15 18 Noroeste 41 Noroeste 0 -- -- 41
2020-09-25 12:00:00 13.4 20 Noroeste 44 Noroeste 0 -- -- 48
2020-09-25 11:00:00 11.7 21 Norte 50 Noroeste 0 -- -- 56
2020-09-25 10:00:00 10.2 18 Noroeste 38 Noroeste 0 -- -- 66
2020-09-25 09:00:00 8.9 13 Noroeste 31 Noroeste 0 -- -- 71
2020-09-25 08:00:00 8.3 8 Noroeste 20 Noroeste 0 -- -- 78
2020-09-25 07:00:00 8.8 12 Noroeste 24 Noroeste 0 -- -- 78
2020-09-25 06:00:00 8.4 5 Oeste 17 Oeste 0 -- -- 82
2020-09-25 05:00:00 8.8 4 Oeste 9 Oeste 0 -- -- 82
2020-09-25 04:00:00 10.1 5 Oeste 10 Oeste 0 -- -- 82
2020-09-25 03:00:00 11.7 4 Noroeste 18 Noroeste 0 -- -- 82
2020-09-25 02:00:00 13 11 Oeste 25 Oeste 0 -- -- 78
2020-09-25 01:00:00 14 9 Oeste 22 Oeste 0 -- -- 74
2020-09-25 00:00:00 13.8 10 Noroeste 24 Oeste 0 -- -- 75
2020-09-24 23:00:00 14.2 10 Noroeste 21 Noroeste 0 -- -- 75
2020-09-24 22:00:00 15 11 Noroeste 23 Noroeste 0 -- -- 73
2020-09-24 21:00:00 15.9 10 Oeste 31 Oeste 0 -- -- 75
2020-09-24 20:00:00 16.9 19 Oeste 38 Oeste 0 -- -- 75
2020-09-24 19:00:00 17.3 13 Noroeste 35 Oeste 0 -- -- 78
2020-09-24 18:00:00 17.1 11 Noroeste 25 Oeste 0 -- -- 82
2020-09-24 17:00:00 17.8 11 Oeste 37 Oeste 0 -- -- 77
2020-09-24 16:00:00 18.8 20 Oeste 40 Oeste 0 -- -- 67
2020-09-24 15:00:00 18.5 17 Oeste 44 Oeste 0 -- -- 72
2020-09-24 14:00:00 16.9 16 Oeste 34 Oeste 0 -- -- 85
2020-09-24 13:00:00 17.4 18 Oeste 33 Oeste 0 -- -- 77
2020-09-24 12:00:00 17 11 Oeste 30 Noroeste 0 -- -- 79
2020-09-24 11:00:00 16.1 4 Oeste 21 Oeste 0 -- -- 85
2020-09-24 10:00:00 15 7 Sudoeste 22 Sur 0 -- -- 90
2020-09-24 09:00:00 13.6 8 Sudoeste 21 Sudoeste 0 -- -- 96
2020-09-24 08:00:00 13.3 7 Sudoeste 15 Sudoeste 0 -- -- 97
2020-09-24 07:00:00 13.5 6 Oeste 13 Oeste 0 -- -- 96
2020-09-24 06:00:00 12.6 2 Noroeste 8 Oeste 0 -- -- 96
2020-09-24 05:00:00 12.3 3 Oeste 9 Noroeste 0 -- -- 95
2020-09-24 04:00:00 12.3 3 Oeste 8 Sudoeste 0 -- -- 95
2020-09-24 03:00:00 11.8 0 Calma 5 Noroeste 0 -- -- 92
2020-09-24 02:00:00 13 3 Noroeste 9 Noroeste 0 -- -- 92
2020-09-24 01:00:00 12.5 2 Sudeste 6 Sudoeste 0 -- -- 88
2020-09-24 00:00:00 13.7 0 Calma 12 Oeste 0 -- -- 82
2020-09-23 23:00:00 15.2 0 Calma 13 Oeste 0 -- -- 74
2020-09-23 22:00:00 17 5 Noroeste 12 Oeste 0 -- -- 67
2020-09-23 21:00:00 18.1 7 Noroeste 17 Oeste 0 -- -- 65
2020-09-23 20:00:00 19.2 7 Noroeste 24 Oeste 0 -- -- 61
2020-09-23 19:00:00 20.4 11 Noroeste 27 Oeste 0 -- -- 56
2020-09-23 18:00:00 20.7 11 Oeste 24 Oeste 0 -- -- 56
2020-09-23 17:00:00 20.8 14 Oeste 30 Oeste 0 -- -- 54
2020-09-23 16:00:00 20.5 9 Oeste 27 Oeste 0 -- -- 57
2020-09-23 15:00:00 21.2 16 Oeste 31 Oeste 0 -- -- 55
2020-09-23 14:00:00 20.5 12 Noroeste 24 Sur 0 -- -- 59
2020-09-23 13:00:00 20.1 10 Sudoeste 23 Oeste 0 -- -- 62
2020-09-23 12:00:00 18.3 7 Noroeste 18 Noroeste 0 -- -- 72
2020-09-23 11:00:00 16 4 Oeste 11 Oeste 0 -- -- 82
2020-09-23 10:00:00 14.3 3 Sur 10 Sur 0.2 -- -- 86
2020-09-23 09:00:00 12.9 0 Calma 6 Sudoeste 0 -- -- 93
2020-09-23 08:00:00 12.8 2 Sur 11 Sur 0 -- -- 89
2020-09-23 07:00:00 12.5 0 Calma 4 Sur 0 -- -- 93
2020-09-23 06:00:00 13.1 2 Oeste 6 Sur 0 -- -- 86
2020-09-23 05:00:00 11.6 2 Sur 3 Sudoeste 0 -- -- 93
2020-09-23 04:00:00 11.6 0 Calma 3 Oeste 0 -- -- 93
2020-09-23 03:00:00 11.3 0 Calma 8 Sudoeste 0 -- -- 92
2020-09-23 02:00:00 10.4 0 Calma 2 Sudoeste 0 -- -- 93
2020-09-23 01:00:00 10.7 0 Calma 2 Sudoeste 0 -- -- 91
2020-09-23 00:00:00 11.2 0 Calma 5 Oeste 0 -- -- 89
2020-09-22 23:00:00 11.8 2 Oeste 5 Noroeste 0 -- -- 85
2020-09-22 22:00:00 13.2 0 Calma 8 Noroeste 0 -- -- 79
2020-09-22 21:00:00 15.9 3 Oeste 11 Oeste 0 -- -- 63
2020-09-22 20:00:00 19.3 7 Oeste 28 Oeste 0 -- -- 49
2020-09-22 19:00:00 20.8 11 Oeste 29 Oeste 0 -- -- 45
2020-09-22 18:00:00 22.9 13 Oeste 26 Noroeste 0 -- -- 40
2020-09-22 17:00:00 22.7 10 Oeste 32 Oeste 0 -- -- 40
2020-09-22 16:00:00 22.9 12 Noroeste 30 Noroeste 0 -- -- 43
2020-09-22 15:00:00 22.1 10 Noroeste 26 Noroeste 0 -- -- 45
2020-09-22 14:00:00 21.8 10 Oeste 25 Oeste 0 -- -- 43
2020-09-22 13:00:00 20.7 9 Oeste 24 Oeste 0 -- -- 41
2020-09-22 12:00:00 19.3 8 Sudoeste 17 Oeste 0 -- -- 57
2020-09-22 11:00:00 16.6 7 Sudoeste 12 Sudoeste 0 -- -- 64
2020-09-22 10:00:00 12.9 0 Calma 8 Sur 0 -- -- 81
2020-09-22 09:00:00 10.1 0 Calma 6 Sudoeste 0 -- -- 89
2020-09-22 08:00:00 8.6 0 Calma 5 Sudoeste 0 -- -- 91
2020-09-22 07:00:00 9.8 4 Sudoeste 9 Sudoeste 0 -- -- 91
2020-09-22 06:00:00 9.3 0 Calma 3 Noroeste 0 -- -- 95
2020-09-22 05:00:00 8.9 2 Sur 3 Sur 0 -- -- 92
2020-09-22 04:00:00 9 0 Calma 2 Sudoeste 0 -- -- 91
2020-09-22 03:00:00 9.1 0 Calma 3 Sudoeste 0 -- -- 91
2020-09-22 02:00:00 9.9 0 Calma 2 Sudoeste 0 -- -- 88
2020-09-22 01:00:00 10.9 0 Calma 2 Sudoeste 0 -- -- 88
2020-09-22 00:00:00 10.8 0 Calma 4 Sur 0 -- -- 87
2020-09-21 23:00:00 10.9 3 Sur 4 Sur 0 -- -- 85
2020-09-21 22:00:00 11.7 0 Calma 2 Sudoeste 0 -- -- 82
2020-09-21 21:00:00 13.9 0 Calma 6 Sudoeste 0 -- -- 70
2020-09-21 20:00:00 18 4 Oeste 15 Noroeste 0 -- -- 56
2020-09-21 19:00:00 20 6 Oeste 14 Noroeste 0 -- -- 48
2020-09-21 18:00:00 21.9 3 Oeste 18 Noroeste 0 -- -- 43
2020-09-21 17:00:00 21.1 8 Noroeste 18 Oeste 0 -- -- 43
2020-09-21 16:00:00 22.1 10 Noroeste 19 Oeste 0 -- -- 41
2020-09-21 15:00:00 22.4 8 Noroeste 22 Oeste 0 -- -- 44
2020-09-21 14:00:00 21.5 10 Noroeste 24 Noroeste 0 -- -- 49
2020-09-21 13:00:00 20.9 10 Oeste 21 Oeste 0 -- -- 50
2020-09-21 12:00:00 19.6 8 Oeste 16 Sudoeste 0 -- -- 64
2020-09-21 11:00:00 15.7 0 Calma 5 Norte 0 -- -- 90
2020-09-21 10:00:00 13.2 0 Calma 2 Norte 0 -- -- 100
2020-09-21 09:00:00 10.7 0 Calma 2 Sur 0 -- -- 99
2020-09-21 08:00:00 9 0 Calma 2 Sur 0 -- -- 97
2020-09-21 07:00:00 9 0 Calma 3 Sudeste 0 -- -- 97
2020-09-21 06:00:00 9.8 0 Calma 4 Noroeste 0 -- -- 97
2020-09-21 05:00:00 10.2 0 Calma 3 Oeste 0 -- -- 97
2020-09-21 04:00:00 10.6 2 Sudoeste 3 Sudoeste 0 -- -- 96
2020-09-21 03:00:00 11.3 0 Calma 2 Sudoeste 0 -- -- 93
2020-09-21 02:00:00 12.8 0 Calma 8 Noroeste 0 -- -- 89
2020-09-21 01:00:00 14.5 0 Calma 14 Oeste 0 -- -- 85
2020-09-21 00:00:00 15.3 10 Oeste 17 Oeste 0 -- -- 81
2020-09-20 23:00:00 15.5 5 Oeste 15 Noroeste 0 -- -- 81
2020-09-20 22:00:00 15.7 4 Oeste 10 Oeste 0 -- -- 79
2020-09-20 21:00:00 15.9 3 Sudoeste 11 Oeste 0 -- -- 78
2020-09-20 20:00:00 17.7 5 Noroeste 16 Oeste 0 -- -- 68
2020-09-20 19:00:00 18.3 6 Noroeste 19 Noroeste 0 -- -- 67
2020-09-20 18:00:00 19.3 6 Oeste 17 Noroeste 0 -- -- 64
2020-09-20 17:00:00 18.8 8 Oeste 19 Oeste 0 -- -- 67
2020-09-20 16:00:00 18.5 8 Oeste 17 Oeste 0 -- -- 67
2020-09-20 15:00:00 18.4 6 Sudoeste 18 Noroeste 0 -- -- 67
2020-09-20 14:00:00 18.8 8 Noroeste 19 Oeste 0 -- -- 64
2020-09-20 13:00:00 17.4 9 Oeste 21 Oeste 0 -- -- 68
2020-09-20 12:00:00 17.2 8 Noroeste 19 Noroeste 0 -- -- 70
2020-09-20 11:00:00 16 8 Oeste 16 Noroeste 0 -- -- 81
2020-09-20 10:00:00 13.7 3 Noroeste 6 Noroeste 0 -- -- 90
2020-09-20 09:00:00 12.6 2 Sur 8 Oeste 0 -- -- 93
2020-09-20 08:00:00 12.7 4 Oeste 9 Oeste 0 -- -- 91
2020-09-20 07:00:00 12.1 2 Oeste 11 Oeste 0 -- -- 92
2020-09-20 06:00:00 12.5 5 Noroeste 9 Oeste 0 -- -- 93
2020-09-20 05:00:00 12.8 0 Calma 2 Noroeste 0 -- -- 93
2020-09-20 04:00:00 13.3 0 Calma 3 Norte 0 -- -- 91
2020-09-20 03:00:00 13.7 0 Calma 6 Sur 0 -- -- 87
2020-09-20 02:00:00 13.3 0 Calma 5 Oeste 0 -- -- 90
2020-09-20 01:00:00 12.5 2 Oeste 5 Noroeste 0 -- -- 92
2020-09-20 00:00:00 13 0 Calma 6 Oeste 0 -- -- 90
2020-09-19 23:00:00 13.7 3 Oeste 8 Noroeste 0 -- -- 83
2020-09-19 22:00:00 15.2 3 Oeste 8 Noroeste 0 -- -- 76
2020-09-19 21:00:00 16.2 6 Noroeste 14 Noroeste 0 -- -- 70
2020-09-19 20:00:00 17.4 9 Oeste 29 Oeste 0 -- -- 60
2020-09-19 19:00:00 18.1 13 Oeste 32 Oeste 0 -- -- 56
2020-09-19 18:00:00 18.8 14 Noroeste 30 Sudoeste 0 -- -- 57
2020-09-19 17:00:00 19.6 16 Oeste 30 Oeste 0 -- -- 54
2020-09-19 16:00:00 19.9 14 Oeste 38 Noroeste 0 -- -- 56
2020-09-19 15:00:00 17.7 14 Oeste 32 Oeste 0 -- -- 66
2020-09-19 14:00:00 17.7 14 Oeste 29 Oeste 0 -- -- 74
2020-09-19 13:00:00 17.1 8 Oeste 23 Oeste 0 -- -- 76
2020-09-19 12:00:00 16.6 11 Sudoeste 31 Sudoeste 0 -- -- 77
2020-09-19 11:00:00 14.5 12 Sudoeste 27 Sudoeste 0 -- -- 89
2020-09-19 10:00:00 13.6 14 Sudoeste 26 Sur 0 -- -- 92
2020-09-19 09:00:00 13.1 12 Sudoeste 27 Sudoeste 0 -- -- 94
2020-09-19 08:00:00 12.7 14 Sudoeste 31 Sudoeste 0 -- -- 94
2020-09-19 07:00:00 12.9 12 Sudoeste 26 Sudoeste 0 -- -- 94
2020-09-19 06:00:00 13.4 11 Sur 23 Sudoeste 0 -- -- 92
2020-09-19 05:00:00 13.6 12 Sur 21 Sur 0 -- -- 93
2020-09-19 04:00:00 13.7 13 Sur 29 Sur 0 -- -- 95
2020-09-19 03:00:00 14 15 Sur 30 Sur 0 -- -- 95
2020-09-19 02:00:00 13.9 13 Sur 24 Sur 3.6 -- -- 97
2020-09-19 01:00:00 13.4 13 Sudeste 22 Sudeste 1.6 -- -- 95
2020-09-19 00:00:00 13.2 16 Sur 23 Sudeste 0 -- -- 91
2020-09-18 23:00:00 13.6 10 Sudeste 15 Sur 0 -- -- 93
2020-09-18 22:00:00 13.7 3 Sur 16 Sudeste 1 -- -- 93
2020-09-18 21:00:00 14.1 12 Sudeste 16 Sudeste 0 -- -- 92
2020-09-18 20:00:00 15.7 0 Calma 17 Sur 0 -- -- 88
2020-09-18 19:00:00 16.1 8 Sur 17 Sur 2.6 -- -- 82
2020-09-18 18:00:00 18.3 8 Sur 25 Sur 0 -- -- 75
2020-09-18 17:00:00 19.8 11 Sudeste 19 Sudeste 0 -- -- 68
2020-09-18 16:00:00 20.2 10 Sudeste 16 Sudeste 0 -- -- 69
2020-09-18 15:00:00 17.4 5 Sur 21 Sudoeste 2.4 -- -- 85
2020-09-18 14:00:00 16.3 4 Sur 24 Sur 1 -- -- 89
2020-09-18 13:00:00 16.8 15 Sur 27 Sur 0.2 -- -- 83
2020-09-18 12:00:00 16.5 18 Sur 29 Sudeste 0 -- -- 83
2020-09-18 11:00:00 16.4 20 Sudeste 30 Sudeste 0 -- -- 81
2020-09-18 10:00:00 15.2 15 Sudeste 24 Sudeste 0 -- -- 85
2020-09-18 09:00:00 14.5 17 Sudeste 35 Sudeste 0 -- -- 87
2020-09-18 08:00:00 15.3 17 Sur 24 Sudeste 0 -- -- 84
2020-09-18 07:00:00 16.1 8 Sudoeste 24 Sudeste 0 -- -- 90
2020-09-18 06:00:00 16.4 15 Sudeste 35 Sudeste 0 -- -- 94
2020-09-18 05:00:00 16.4 15 Sudeste 34 Sudeste 0 -- -- 94
2020-09-18 04:00:00 16.6 21 Sudeste 35 Sudeste 0 -- -- 95
2020-09-18 03:00:00 16.8 16 Sudeste 33 Sudeste 0 -- -- 95
2020-09-18 02:00:00 16.6 17 Sudeste 31 Sudeste 0.8 -- -- 95
2020-09-18 01:00:00 15.8 17 Sudeste 31 Sudeste 0 -- -- 93
2020-09-18 00:00:00 15.9 17 Sudeste 32 Sudeste 0 -- -- 94
2020-09-17 23:00:00 16.1 20 Sudeste 31 Sudeste 1.8 -- -- 94
2020-09-17 22:00:00 17 33 Sur 55 Sur 1 -- -- 86
2020-09-17 21:00:00 20.7 11 Sudeste 19 Sudeste 0 -- -- 57
2020-09-17 20:00:00 21.8 8 Sur 19 Sudoeste 0 -- -- 54
2020-09-17 19:00:00 23.5 9 Sur 26 Sudeste 0 -- -- 49
2020-09-17 18:00:00 23.4 15 Sur 30 Sur 0 -- -- 49
2020-09-17 17:00:00 22.4 12 Sur 26 Sudeste 0 -- -- 56
2020-09-17 16:00:00 21.7 14 Sudeste 24 Sur 0 -- -- 56
2020-09-17 15:00:00 20.9 15 Sudeste 27 Sur 0 -- -- 57
2020-09-17 14:00:00 21.5 15 Sur 33 Sudeste 0 -- -- 55
2020-09-17 13:00:00 24.1 23 Sur 32 Sur 0 -- -- 49
2020-09-17 12:00:00 22.5 19 Sur 33 Sudeste 0 -- -- 54
2020-09-17 11:00:00 20.7 18 Sur 32 Sudeste 0 -- -- 57
2020-09-17 10:00:00 18.7 18 Sudeste 30 Sudeste 0 -- -- 68
2020-09-17 09:00:00 16.8 13 Sudeste 22 Sudeste 0 -- -- 74
2020-09-17 08:00:00 16.5 10 Sudeste 20 Sudeste 0 -- -- 75
2020-09-17 07:00:00 16.3 8 Sudeste 13 Sudeste 0 -- -- 79
2020-09-17 06:00:00 16.2 9 Sudeste 19 Sudeste 0 -- -- 83
2020-09-17 05:00:00 16.7 3 Sudeste 20 Sur 0 -- -- 84
2020-09-17 04:00:00 18.2 14 Sur 29 Sudeste 0 -- -- 68
2020-09-17 03:00:00 18.7 15 Sur 28 Sudeste 0 -- -- 66
2020-09-17 02:00:00 19.1 15 Sudeste 26 Sudeste 0 -- -- 68
2020-09-17 01:00:00 20.3 17 Sudeste 26 Sudeste 0 -- -- 56
2020-09-17 00:00:00 20.7 12 Sudeste 28 Sudeste 0 -- -- 56
2020-09-16 23:00:00 21.6 14 Sudeste 26 Sudeste 0 -- -- 53
2020-09-16 22:00:00 22 10 Sudeste 19 Sudeste 0 -- -- 47
2020-09-16 21:00:00 20.8 9 Sur 17 Sur 0 -- -- 43
2020-09-16 20:00:00 24.4 10 Sur 24 Sudoeste 0 -- -- 34
2020-09-16 19:00:00 26.5 12 Sur 27 Sur 0 -- -- 34
2020-09-16 18:00:00 28 17 Sur 32 Sudeste 0 -- -- 33
2020-09-16 17:00:00 28.4 16 Sur 30 Sur 0 -- -- 33
2020-09-16 16:00:00 29.6 13 Sudoeste 25 Sur 0 -- -- 34
2020-09-16 15:00:00 28.5 14 Sur 32 Sudoeste 0 -- -- 37
2020-09-16 14:00:00 28.4 12 Sur 23 Sur 0 -- -- 38
2020-09-16 13:00:00 26.6 11 Sur 22 Sudeste 0 -- -- 44
2020-09-16 12:00:00 24.5 10 Sudeste 19 Sudeste 0 -- -- 48
2020-09-16 11:00:00 22.8 11 Sudeste 23 Sudeste 0 -- -- 52
2020-09-16 10:00:00 20.1 9 Sudeste 22 Sudeste 0 -- -- 58
2020-09-16 09:00:00 16.2 2 Nordeste 10 Este 0 -- -- 77
2020-09-16 08:00:00 14.2 0 Calma 10 Este 0 -- -- 83
2020-09-16 07:00:00 14.4 2 Sudeste 6 Nordeste 0 -- -- 84
2020-09-16 06:00:00 14.3 2 Oeste 4 Norte 0 -- -- 84
2020-09-16 05:00:00 14.6 0 Calma 11 Sudeste 0 -- -- 80
2020-09-16 04:00:00 15.6 3 Sudeste 10 Sur 0 -- -- 77
2020-09-16 03:00:00 17.2 6 Sudeste 14 Sudeste 0 -- -- 71
2020-09-16 02:00:00 18.1 10 Sur 17 Sudeste 0 -- -- 69
2020-09-16 01:00:00 19.2 14 Sur 19 Sudeste 0 -- -- 64
2020-09-16 00:00:00 19.7 14 Sudeste -- -- 0 -- -- 56
2020-09-15 23:00:00 15.5 3 Sur 5 Sur 0 -- -- 63
2020-09-15 22:00:00 16.8 2 Sur 6 Sudoeste 0 -- -- 55
2020-09-15 21:00:00 19.1 4 Sur 8 Oeste 0 -- -- 51
2020-09-15 20:00:00 24.3 5 Oeste 18 Oeste 0 -- -- 36
2020-09-15 19:00:00 25.6 6 Sudoeste 21 Sur 0 -- -- 38
2020-09-15 18:00:00 27 10 Sur 20 Sudeste 0 -- -- 39
2020-09-15 17:00:00 25.7 9 Sur 26 Sur 0 -- -- 40
2020-09-15 16:00:00 26.1 10 Sur 25 Sudeste 0 -- -- 41
2020-09-15 15:00:00 26.1 12 Sur 24 Sur 0 -- -- 43
2020-09-15 14:00:00 26.7 6 Sur 19 Sur 0 -- -- 45
2020-09-15 13:00:00 25.3 11 Sur 21 Sur 0 -- -- 47
2020-09-15 12:00:00 22.6 10 Sur 18 Sur 0 -- -- 56
2020-09-15 11:00:00 20.9 9 Sudeste 19 Sudeste 0 -- -- 59
2020-09-15 10:00:00 18 5 Sudeste 21 Sudeste 0 -- -- 67
2020-09-15 09:00:00 16.1 0 Calma 19 Sudeste 0 -- -- 76
2020-09-15 08:00:00 16 10 Sudeste 21 Sudeste 0 -- -- 74
2020-09-15 07:00:00 16.7 15 Sudeste 27 Sudeste 0 -- -- 70
2020-09-15 06:00:00 16.8 15 Sudeste 26 Sudeste 0 -- -- 70
2020-09-15 05:00:00 16.7 9 Sudeste 26 Sudeste 0 -- -- 76
2020-09-15 04:00:00 16.9 18 Sudeste 29 Sudeste 0 -- -- 79
2020-09-15 03:00:00 17.2 16 Sudeste 29 Sudeste 0 -- -- 78
2020-09-15 02:00:00 17.7 18 Sur 31 Sudeste 0 -- -- 74
2020-09-15 01:00:00 18.3 9 Este 20 Sudoeste 0 -- -- 71
2020-09-15 00:00:00 19.1 15 Sudeste 37 Este 0 -- -- 66
2020-09-14 23:00:00 20.1 15 Sudeste 36 Sudeste 0 -- -- 57
2020-09-14 22:00:00 20.8 19 Sudeste 32 Sudeste 0 -- -- 53
2020-09-14 21:00:00 22.8 19 Sudeste 30 Sur 0 -- -- 43
2020-09-14 20:00:00 24.1 16 Sur 24 Sur 0 -- -- 43
2020-09-14 19:00:00 25 18 Sudeste 31 Sudeste 0 -- -- 39
2020-09-14 18:00:00 26.1 17 Sudeste 30 Sudeste 0 -- -- 36
2020-09-14 17:00:00 26.2 18 Sudeste 34 Sudeste 0 -- -- 35
2020-09-14 16:00:00 25 16 Sur 32 Sur 0 -- -- 37
2020-09-14 15:00:00 26.5 20 Sur 37 Sudeste 0 -- -- 35
2020-09-14 14:00:00 24.5 25 Sudeste 35 Sudeste 0 -- -- 37
2020-09-14 13:00:00 25.7 24 Sur 40 Sudeste 0 -- -- 39
2020-09-14 12:00:00 23.6 24 Sudeste 43 Sudeste 0 -- -- 45
2020-09-14 11:00:00 22.1 21 Sudeste 41 Sudeste 0 -- -- 49
2020-09-14 10:00:00 19.3 17 Sudeste 30 Sudeste 0 -- -- 59
2020-09-14 09:00:00 17.6 17 Sudeste 31 Sudeste 0 -- -- 63
2020-09-14 08:00:00 16.1 15 Sudeste 25 Sudeste 0 -- -- 69
2020-09-14 07:00:00 16 14 Sudeste 26 Sudeste 0 -- -- 69
2020-09-14 06:00:00 16.3 17 Sudeste 26 Sudeste 0 -- -- 68
2020-09-14 05:00:00 16.4 14 Sudeste 23 Sudeste 0 -- -- 69
2020-09-14 04:00:00 16.8 12 Sudeste 21 Sudeste 0 -- -- 68
2020-09-14 03:00:00 17 10 Sudeste 17 Sudeste 0 -- -- 64
2020-09-14 02:00:00 17.2 9 Sudeste 18 Sudeste 0 -- -- 59
2020-09-14 01:00:00 18.2 10 Sudeste 18 Sudeste 0 -- -- 56
2020-09-14 00:00:00 18.6 5 Sudeste 23 Sudeste 0 -- -- 54
2020-09-13 23:00:00 20.4 14 Sudeste 26 Sudeste 0 -- -- 48
2020-09-13 22:00:00 21.5 12 Sudeste 21 Sudeste 0 -- -- 42
2020-09-13 21:00:00 23.3 13 Sudeste 28 Sudeste 0 -- -- 38
2020-09-13 20:00:00 25.4 17 Sur 28 Sur 0 -- -- 35
2020-09-13 19:00:00 26.1 13 Sur 25 Sur 0 -- -- 32
2020-09-13 18:00:00 27.6 13 Sur 32 Sudeste 0 -- -- 31
2020-09-13 17:00:00 29 17 Sur 29 Sur 0 -- -- 29
2020-09-13 16:00:00 29.1 14 Sur 39 Sur 0 -- -- 29
2020-09-13 15:00:00 29.1 15 Sur 33 Sudeste 0 -- -- 30
2020-09-13 14:00:00 28.8 11 Sur 26 Sudeste 0 -- -- 31
2020-09-13 13:00:00 27.2 14 Sudeste 26 Sudeste 0 -- -- 35
2020-09-13 12:00:00 25.4 16 Sudeste 32 Sudeste 0 -- -- 37
2020-09-13 11:00:00 22.6 17 Sudeste 29 Sudeste 0 -- -- 46
2020-09-13 10:00:00 20.4 14 Sudeste 23 Sudeste 0 -- -- 53
2020-09-13 09:00:00 17.1 10 Sudeste 19 Sudeste 0 -- -- 63
2020-09-13 08:00:00 15.2 7 Sudeste 13 Sudeste 0 -- -- 70
2020-09-13 07:00:00 15.5 6 Sudeste 15 Sudeste 0 -- -- 68
2020-09-13 06:00:00 16.3 8 Sudeste 22 Sudeste 0 -- -- 65
2020-09-13 05:00:00 17 11 Sudeste 27 Sudeste 0 -- -- 63
2020-09-13 04:00:00 17.4 17 Sudeste 31 Sudeste 0 -- -- 61
2020-09-13 03:00:00 17.9 19 Sudeste 33 Sudeste 0 -- -- 58
2020-09-13 02:00:00 18.4 20 Sudeste 32 Sudeste 0 -- -- 57
2020-09-13 01:00:00 18.9 18 Sudeste 30 Sudeste 0 -- -- 60
2020-09-13 00:00:00 19.7 18 Sudeste 32 Sudeste 0 -- -- 61
2020-09-12 23:00:00 21.3 15 Sudeste 29 Sudeste 0 -- -- 57
2020-09-12 22:00:00 21.8 13 Sur 16 Sur 0 -- -- 38
2020-09-12 21:00:00 21.5 9 Sur 11 Sur 0 -- -- 39
2020-09-12 20:00:00 25.6 9 Sur 13 Sudoeste 0 -- -- 31
2020-09-12 19:00:00 28.8 5 Sudoeste 13 Sudoeste 0 -- -- 28
2020-09-12 18:00:00 30.7 8 Sudeste 15 Sur 0 -- -- 26
2020-09-12 17:00:00 30.6 6 Sudoeste 22 Sur 0 -- -- 26
2020-09-12 16:00:00 30.7 8 Norte 17 Sudeste 0 -- -- 26
2020-09-12 15:00:00 30.2 9 Oeste 22 Sudoeste 0 -- -- 28
2020-09-12 14:00:00 29.2 6 Sudoeste 22 Sudoeste 0 -- -- 30
2020-09-12 13:00:00 27.9 8 Sur 16 Sur 0 -- -- 35
2020-09-12 12:00:00 25.7 10 Sudeste 21 Sur 0 -- -- 39
2020-09-12 11:00:00 23 12 Sudeste 28 Sudeste 0 -- -- 44
2020-09-12 10:00:00 20.4 14 Sudeste 26 Sur 0 -- -- 50
2020-09-12 09:00:00 16.5 3 Este 11 Este 0 -- -- 62
2020-09-12 08:00:00 15.5 6 Este 15 Sudeste 0 -- -- 63
2020-09-12 07:00:00 16.6 6 Sudeste 21 Sudeste 0 -- -- 60
2020-09-12 06:00:00 16.6 7 Sudeste 15 Sudeste 0 -- -- 59
2020-09-12 05:00:00 17.3 9 Sudeste 20 Sudeste 0 -- -- 58
2020-09-12 04:00:00 17.6 10 Sudeste 20 Sudeste 0 -- -- 58
2020-09-12 03:00:00 17.9 9 Sudeste 21 Sudeste 0 -- -- 59
2020-09-12 02:00:00 18.1 6 Sudeste 18 Sudeste 0 -- -- 58
2020-09-12 01:00:00 18.8 12 Sudeste 21 Sudeste 0 -- -- 55
2020-09-12 00:00:00 17.8 9 Sudeste 14 Sur 0 -- -- 48
2020-09-11 23:00:00 15 0 Calma 2 Sudoeste 0 -- -- 58
2020-09-11 22:00:00 16.2 0 Calma 6 Oeste 0 -- -- 52
2020-09-11 21:00:00 19.6 4 Oeste 8 Oeste 0 -- -- 42
2020-09-11 20:00:00 24.8 4 Oeste 13 Noroeste 0 -- -- 31
2020-09-11 19:00:00 26.8 4 Noroeste 19 Norte 0 -- -- 29
2020-09-11 18:00:00 29.4 8 Noroeste 22 Noroeste 0 -- -- 25
2020-09-11 17:00:00 29.8 7 Oeste 16 Norte 0 -- -- 26
2020-09-11 16:00:00 29.6 11 Noroeste 23 Norte 0 -- -- 25
2020-09-11 15:00:00 28.7 12 Noroeste 21 Noroeste 0 -- -- 29
2020-09-11 14:00:00 27.6 5 Oeste 22 Oeste 0 -- -- 31
2020-09-11 13:00:00 26.8 9 Oeste 18 Oeste 0 -- -- 33
2020-09-11 12:00:00 25.8 4 Sur 13 Oeste 0 -- -- 42
2020-09-11 11:00:00 22.7 4 Sur 10 Este 0 -- -- 52
2020-09-11 10:00:00 17.7 3 Noroeste 6 Oeste 0 -- -- 72
2020-09-11 09:00:00 13 0 Calma 5 Este 0 -- -- 82
2020-09-11 08:00:00 11.2 0 Calma 3 Noroeste 0 -- -- 88
2020-09-11 07:00:00 11.8 0 Calma 5 Este 0 -- -- 86
2020-09-11 06:00:00 12.8 2 Nordeste 7 Nordeste 0 -- -- 83
2020-09-11 05:00:00 13.8 2 Sudeste 10 Nordeste 0 -- -- 79
2020-09-11 04:00:00 15.5 5 Nordeste 11 Nordeste 0 -- -- 73
2020-09-11 03:00:00 15.8 2 Oeste 13 Sudeste 0 -- -- 72
2020-09-11 02:00:00 17.4 10 Sudeste 24 Sudeste 0 -- -- 64
2020-09-11 01:00:00 19 19 Sudeste 26 Sur 0 -- -- 52
2020-09-11 00:00:00 19.7 10 Sudeste 23 Este 0 -- -- 43
2020-09-10 23:00:00 20.3 9 Sudeste 17 Este 0 -- -- 41
2020-09-10 22:00:00 16.7 0 Calma 5 Nordeste 0 -- -- 51
2020-09-10 21:00:00 19.5 0 Calma 10 Noroeste 0 -- -- 49
2020-09-10 20:00:00 24.8 6 Noroeste 18 Norte 0 -- -- 34
2020-09-10 19:00:00 26.5 10 Norte 26 Norte 0 -- -- 31
2020-09-10 18:00:00 27 8 Norte 26 Norte 0 -- -- 30
2020-09-10 17:00:00 28.5 11 Norte 23 Norte 0 -- -- 28
2020-09-10 16:00:00 26.9 6 Nordeste 14 Este 0 -- -- 32
2020-09-10 15:00:00 27.5 6 Sur 17 Sudoeste 0 -- -- 33
2020-09-10 14:00:00 26.9 4 Nordeste 21 Norte 0 -- -- 36
2020-09-10 13:00:00 25 7 Norte 15 Norte 0 -- -- 40
2020-09-10 12:00:00 22.6 5 Oeste 14 Noroeste 0 -- -- 49
2020-09-10 11:00:00 20.6 7 Sudoeste 13 Sudoeste 0 -- -- 60
2020-09-10 10:00:00 15.6 0 Calma 5 Noroeste 0 -- -- 73
2020-09-10 09:00:00 12.5 0 Calma 5 Noroeste 0 -- -- 97
2020-09-10 08:00:00 9.8 3 Sur 4 Nordeste 0 -- -- 93
2020-09-10 07:00:00 10.6 3 Este 6 Sudeste 0 -- -- 95
2020-09-10 06:00:00 10.2 0 Calma 4 Sur 0 -- -- 91
2020-09-10 05:00:00 11.1 0 Calma 5 Sudeste 0 -- -- 88
2020-09-10 04:00:00 12.2 3 Sur 9 Sudeste 0 -- -- 84
2020-09-10 03:00:00 13 3 Sur 10 Este 0 -- -- 82
2020-09-10 02:00:00 14 0 Calma 5 Este 0 -- -- 75
2020-09-10 01:00:00 16.8 0 Calma 16 Sur 0 -- -- 62
2020-09-10 00:00:00 14.7 3 Sur 7 Oeste 0 -- -- 54
2020-09-09 23:00:00 13.6 0 Calma 4 Sudoeste 0 -- -- 58
2020-09-09 22:00:00 15.7 0 Calma 5 Oeste 0 -- -- 52
2020-09-09 21:00:00 20.5 3 Oeste 15 Oeste 0 -- -- 39
2020-09-09 20:00:00 23.7 8 Noroeste 22 Noroeste 0 -- -- 31
2020-09-09 19:00:00 24.7 10 Noroeste 22 Norte 0 -- -- 30
2020-09-09 18:00:00 26.7 9 Norte 18 Norte 0 -- -- 28
2020-09-09 17:00:00 27 7 Norte 21 Norte 0 -- -- 27
2020-09-09 16:00:00 26.5 6 Norte 25 Norte 0 -- -- 31
2020-09-09 15:00:00 25.7 9 Noroeste 22 Norte 0 -- -- 32
2020-09-09 14:00:00 24.6 9 Norte 20 Noroeste 0 -- -- 35
2020-09-09 13:00:00 23.3 6 Noroeste 19 Noroeste 0 -- -- 38
2020-09-09 12:00:00 21.2 8 Noroeste 15 Noroeste 0 -- -- 44
2020-09-09 11:00:00 18.4 5 Noroeste 12 Noroeste 0 -- -- 50
2020-09-09 10:00:00 14.9 2 Norte 5 Nordeste 0 -- -- 64
2020-09-09 09:00:00 12.4 0 Calma 4 Sudeste 0 -- -- 72
2020-09-09 08:00:00 10.9 0 Calma 3 Norte 0 -- -- 80
2020-09-09 07:00:00 10.3 0 Calma 4 Nordeste 0 -- -- 84
2020-09-09 06:00:00 8.9 0 Calma 4 Nordeste 0 -- -- 82
2020-09-09 05:00:00 10.2 0 Calma 10 Este 0 -- -- 74
2020-09-09 04:00:00 10.8 0 Calma 6 Nordeste 0 -- -- 72
2020-09-09 03:00:00 11.5 0 Calma 8 Sudeste 0 -- -- 69
2020-09-09 02:00:00 12.4 3 Sudeste 14 Sur 0 -- -- 64
2020-09-09 01:00:00 13.5 9 Sudeste 16 Sudeste 0 -- -- 58
2020-09-09 00:00:00 14.7 10 Sudeste 21 Sudeste 0 -- -- 53
2020-09-08 23:00:00 15.5 11 Sudeste 16 Sur 0 -- -- 50
2020-09-08 22:00:00 17 12 Sudeste 19 Sur 0 -- -- 45
2020-09-08 21:00:00 17.8 12 Sur 20 Sur 0 -- -- 44
2020-09-08 20:00:00 20.4 13 Sur 20 Sur 0 -- -- 38
2020-09-08 19:00:00 22 13 Sur 23 Sudoeste 0 -- -- 36
2020-09-08 18:00:00 23.9 14 Sur 28 Sur 0 -- -- 33
2020-09-08 17:00:00 23.8 16 Sur 29 Sudeste 0 -- -- 34
2020-09-08 16:00:00 24.3 6 Sudeste 32 Sur 0 -- -- 30
2020-09-08 15:00:00 23.4 7 Sur 30 Este 0 -- -- 34
2020-09-08 14:00:00 22.5 14 Sur 24 Sur 0 -- -- 36
2020-09-08 13:00:00 21.3 12 Este 23 Este 0 -- -- 43
2020-09-08 12:00:00 19.8 9 Sudeste 21 Sur 0 -- -- 49
2020-09-08 11:00:00 17.5 11 Sudeste 25 Sudeste 0 -- -- 55
2020-09-08 10:00:00 14.6 11 Sudeste 26 Este 0 -- -- 58
2020-09-08 09:00:00 11.5 6 Sudeste 20 Este 0 -- -- 59
2020-09-08 08:00:00 10.2 6 Sudeste 21 Sudeste 0 -- -- 64
2020-09-08 07:00:00 10.9 11 Sudeste 28 Sudeste 0 -- -- 63
2020-09-08 06:00:00 9.9 8 Sudeste 19 Sudeste 0 -- -- 75
2020-09-08 05:00:00 8.5 0 Calma 4 Sudeste 0 -- -- 89
2020-09-08 04:00:00 9.8 0 Calma 5 Sudeste 0 -- -- 88
2020-09-08 03:00:00 11.1 0 Calma 10 Sudeste 0 -- -- 86
2020-09-08 02:00:00 12.3 6 Sur 16 Sudeste 0 -- -- 82
2020-09-08 01:00:00 13.4 10 Sudeste 17 Sudeste 0 -- -- 71
2020-09-08 00:00:00 11.9 5 Sudeste 8 Sudeste 0 -- -- 57
2020-09-07 23:00:00 14.8 0 Calma 10 Nordeste 0 -- -- 42
2020-09-07 22:00:00 17.6 6 Este 17 Este 0 -- -- 32
2020-09-07 21:00:00 19 4 Norte 21 Norte 0 -- -- 31
2020-09-07 20:00:00 22.4 12 Norte 25 Norte 0 -- -- 25
2020-09-07 19:00:00 24.1 15 Norte 29 Noroeste 0 -- -- 23
2020-09-07 18:00:00 25.7 15 Norte 30 Norte 0 -- -- 22
2020-09-07 17:00:00 25.5 13 Norte 28 Norte 0 -- -- 24
2020-09-07 16:00:00 25.2 15 Norte 30 Noroeste 0 -- -- 25
2020-09-07 15:00:00 24.7 13 Norte 26 Norte 0 -- -- 30
2020-09-07 14:00:00 22.9 12 Norte 28 Norte 0 -- -- 35
2020-09-07 13:00:00 22.2 12 Norte 22 Norte 0 -- -- 36
2020-09-07 12:00:00 20.7 9 Norte 20 Norte 0 -- -- 37
2020-09-07 11:00:00 17.5 10 Norte 21 Nordeste 0 -- -- 52
2020-09-07 10:00:00 14.1 7 Norte 15 Norte 0 -- -- 65
2020-09-07 09:00:00 11.9 6 Norte 11 Nordeste 0 -- -- 75
2020-09-07 08:00:00 10.5 0 Calma 10 Norte 0 -- -- 82
2020-09-07 07:00:00 10.9 0 Calma 5 Norte 0 -- -- 85
2020-09-07 06:00:00 11 0 Calma 4 Noroeste 0 -- -- 88
2020-09-07 05:00:00 11.5 2 Noroeste 5 Noroeste 0 -- -- 87
2020-09-07 04:00:00 12.6 2 Noroeste 5 Sur 0 -- -- 83
2020-09-07 03:00:00 14.7 2 Noroeste 6 Sur 0 -- -- 76
2020-09-07 02:00:00 17.5 5 Este 17 Sur 0 -- -- 61
2020-09-07 01:00:00 17.6 5 Sudeste 11 Este 0 -- -- 54
2020-09-07 00:00:00 17.7 3 Sudeste 6 Sudoeste 0 -- -- 51
2020-09-06 23:00:00 17.8 4 Noroeste 13 Norte 0 -- -- 48
2020-09-06 22:00:00 17.3 2 Sudoeste 4 Sudoeste 0 -- -- 53
2020-09-06 21:00:00 22.2 2 Sudoeste 10 Sudoeste 0 -- -- 39
2020-09-06 20:00:00 27.3 4 Sudoeste 15 Oeste 0 -- -- 29
2020-09-06 19:00:00 28.7 7 Oeste 14 Oeste 0 -- -- 27
2020-09-06 18:00:00 28.7 9 Oeste 20 Sudoeste 0 -- -- 26
2020-09-06 17:00:00 29.1 5 Noroeste 19 Sudoeste 0 -- -- 28
2020-09-06 16:00:00 30 5 Noroeste 21 Sudoeste 0 -- -- 29
2020-09-06 15:00:00 29.2 7 Sudeste 19 Sudeste 0 -- -- 30
2020-09-06 14:00:00 28.2 11 Sudoeste 20 Sudoeste 0 -- -- 31
2020-09-06 13:00:00 26 11 Sur 24 Sudeste 0 -- -- 37
2020-09-06 12:00:00 24.9 13 Sudeste 28 Sudeste 0 -- -- 40
2020-09-06 11:00:00 21.9 16 Sudeste 31 Sudeste 0 -- -- 47
2020-09-06 10:00:00 19.6 17 Sudeste 31 Sudeste 0 -- -- 52
2020-09-06 09:00:00 18.1 10 Sudeste 22 Sudeste 0 -- -- 54
2020-09-06 08:00:00 17 9 Sudeste 19 Sudeste 0 -- -- 55
2020-09-06 07:00:00 17 9 Sudeste 20 Sudeste 0 -- -- 54
2020-09-06 06:00:00 17 9 Sudeste 20 Sudeste 0 -- -- 54
2020-09-06 05:00:00 16.9 13 Sudeste 23 Sudeste 0 -- -- 57
2020-09-06 04:00:00 16.8 10 Sudeste 27 Sudeste 0 -- -- 60
2020-09-06 03:00:00 17.4 17 Sudeste 27 Sudeste 0 -- -- 58
2020-09-06 02:00:00 18 17 Sudeste 29 Sur 0 -- -- 57
2020-09-06 01:00:00 18.8 15 Sudeste 31 Sudeste 0 -- -- 51
2020-09-06 00:00:00 20.2 22 Sudeste 35 Sudeste 0 -- -- 45
2020-09-05 23:00:00 21.1 18 Sudeste 37 Sudeste 0 -- -- 48
2020-09-05 22:00:00 23 18 Sudeste 30 Sudeste 0 -- -- 41
2020-09-05 21:00:00 24.1 14 Sur 18 Sur 0 -- -- 33
2020-09-05 20:00:00 28.7 8 Sudoeste 14 Noroeste 0 -- -- 27
2020-09-05 19:00:00 30.6 4 Oeste 17 Noroeste 0 -- -- 27
2020-09-05 18:00:00 31.9 7 Oeste 15 Noroeste 0 -- -- 24
2020-09-05 17:00:00 31.6 7 Noroeste 19 Noroeste 0 -- -- 26
2020-09-05 16:00:00 31 10 Noroeste 20 Oeste 0 -- -- 27
2020-09-05 15:00:00 30.3 7 Norte 19 Norte 0 -- -- 28
2020-09-05 14:00:00 29.3 5 Noroeste 13 Noroeste 0 -- -- 30
2020-09-05 13:00:00 27.7 5 Oeste 17 Sudoeste 0 -- -- 32
2020-09-05 12:00:00 25.9 3 Sur 10 Nordeste 0 -- -- 41
2020-09-05 11:00:00 22.2 3 Sudeste 8 Sudeste 0 -- -- 47
2020-09-05 10:00:00 17.1 2 Norte 4 Noroeste 0 -- -- 73
2020-09-05 09:00:00 13.3 0 Calma 2 Sudeste 0 -- -- 92
2020-09-05 08:00:00 11 0 Calma 5 Sudeste 0 -- -- 92
2020-09-05 07:00:00 11.3 0 Calma 3 Sudoeste 0 -- -- 90
2020-09-05 06:00:00 12.1 0 Calma 9 Sudeste 0 -- -- 84
2020-09-05 05:00:00 13.8 4 Sudeste 12 Este 0 -- -- 82
2020-09-05 04:00:00 15.4 5 Este 14 Este 0 -- -- 78
2020-09-05 03:00:00 15.1 3 Sudeste 10 Sudeste 0 -- -- 75
2020-09-05 02:00:00 16.1 5 Sudeste 11 Este 0 -- -- 71
2020-09-05 01:00:00 17.4 5 Sudeste 18 Sudeste 0 -- -- 66
2020-09-05 00:00:00 18.9 13 Sudeste 25 Sudeste 0 -- -- 58
2020-09-04 23:00:00 20.6 14 Sur 22 Sudeste 0 -- -- 44
2020-09-04 22:00:00 17.5 8 Sur 10 Sur 0 -- -- 52
2020-09-04 21:00:00 21.1 9 Sur 19 Sur 0 -- -- 39
2020-09-04 20:00:00 25.7 11 Sur 23 Sur 0 -- -- 30
2020-09-04 19:00:00 27.1 10 Sur 22 Sur 0 -- -- 30
2020-09-04 18:00:00 28.5 12 Sur 28 Sur 0 -- -- 28
2020-09-04 17:00:00 28.8 10 Sur 23 Sur 0 -- -- 27
2020-09-04 16:00:00 28.3 9 Sur 33 Sudeste 0 -- -- 28
2020-09-04 15:00:00 28.5 9 Sur 24 Sudeste 0 -- -- 27
2020-09-04 14:00:00 27.5 10 Sudeste 25 Sudeste 0 -- -- 27
2020-09-04 13:00:00 26.2 9 Sur 19 Sur 0 -- -- 34
2020-09-04 12:00:00 24.6 8 Sudeste 22 Sudeste 0 -- -- 37
2020-09-04 11:00:00 22 12 Sudeste 21 Sudeste 0 -- -- 42
2020-09-04 10:00:00 18.5 6 Sudeste 14 Sur 0 -- -- 52
2020-09-04 09:00:00 15 0 Calma 9 Sudeste 0 -- -- 70
2020-09-04 08:00:00 12.7 3 Este 7 Este 0 -- -- 79
2020-09-04 07:00:00 12 2 Este 6 Este 0 -- -- 80
2020-09-04 06:00:00 13.4 5 Este 11 Nordeste 0 -- -- 74
2020-09-04 05:00:00 13.7 2 Este 9 Sudeste 0 -- -- 73
2020-09-04 04:00:00 14.3 2 Sudeste 14 Sudeste 0 -- -- 74
2020-09-04 03:00:00 16 6 Sudeste 21 Sudeste 0 -- -- 72
2020-09-04 02:00:00 16.7 8 Sudeste 26 Sudeste 0 -- -- 74
2020-09-04 01:00:00 17.8 14 Sudeste 26 Sudeste 0 -- -- 71
2020-09-04 00:00:00 18.8 14 Sudeste 25 Sudeste 0 -- -- 65
2020-09-03 23:00:00 20.7 15 Sudeste 31 Sudeste 0 -- -- 48
2020-09-03 22:00:00 20.9 12 Sur 16 Sur 0 -- -- 41
2020-09-03 21:00:00 21.5 12 Sur 15 Sur 0 -- -- 41
2020-09-03 20:00:00 26.5 5 Sur 12 Sur 0 -- -- 34
2020-09-03 19:00:00 28.2 3 Sur 15 Sudoeste 0 -- -- 31
2020-09-03 18:00:00 29.2 5 Oeste 23 Sudeste 0 -- -- 28
2020-09-03 17:00:00 28.6 8 Sudoeste 20 Sur 0 -- -- 29
2020-09-03 16:00:00 28.6 7 Sur 19 Sudeste 0 -- -- 30
2020-09-03 15:00:00 28.2 4 Sudoeste 18 Norte 0 -- -- 34
2020-09-03 14:00:00 27.2 7 Oeste 18 Sudoeste 0 -- -- 33
2020-09-03 13:00:00 25.7 9 Sudoeste 19 Sudoeste 0 -- -- 43
2020-09-03 12:00:00 24.3 9 Sur 23 Sudeste 0 -- -- 48
2020-09-03 11:00:00 21.1 12 Sudeste 23 Sudeste 0 -- -- 62
2020-09-03 10:00:00 17.7 8 Sudeste 20 Sur 0 -- -- 79
2020-09-03 09:00:00 14.7 5 Este 15 Sur 0 -- -- 94
2020-09-03 08:00:00 13.5 3 Sudeste 10 Sudeste 0 -- -- 95
2020-09-03 07:00:00 13.5 2 Nordeste 10 Este 0 -- -- 93
2020-09-03 06:00:00 13.7 3 Este 10 Este 0 -- -- 93
2020-09-03 05:00:00 14.2 2 Nordeste 18 Sudeste 0 -- -- 90
2020-09-03 04:00:00 14.7 9 Sudeste 20 Sudeste 0 -- -- 88
2020-09-03 03:00:00 15.1 9 Sudeste 21 Sudeste 0 -- -- 85
2020-09-03 02:00:00 15.6 11 Sudeste 21 Sudeste 0 -- -- 80
2020-09-03 01:00:00 16 5 Sudeste 24 Sudeste 0 -- -- 72
2020-09-03 00:00:00 16.7 15 Sudeste 27 Sudeste 0 -- -- 62
2020-09-02 23:00:00 13.5 2 Sur 3 Sur 0 -- -- 54
2020-09-02 22:00:00 14.1 0 Calma 3 Sudoeste 0 -- -- 50
2020-09-02 21:00:00 18.2 2 Oeste 10 Noroeste 0 -- -- 46
2020-09-02 20:00:00 26.1 5 Noroeste 18 Noroeste 0 -- -- 25
2020-09-02 19:00:00 27.1 7 Noroeste 19 Noroeste 0 -- -- 24
2020-09-02 18:00:00 27.3 4 Sur 22 Norte 0 -- -- 25
2020-09-02 17:00:00 26 5 Sudeste 15 Norte 0 -- -- 31
2020-09-02 16:00:00 26.2 5 Norte 15 Noroeste 0 -- -- 33
2020-09-02 15:00:00 26.4 10 Noroeste 23 Sudeste 0 -- -- 31
2020-09-02 14:00:00 25.5 9 Noroeste 18 Noroeste 0 -- -- 32
2020-09-02 13:00:00 23.8 7 Noroeste 18 Oeste 0 -- -- 43
2020-09-02 12:00:00 23.3 6 Sudeste 17 Sudeste 0 -- -- 44
2020-09-02 11:00:00 20.6 9 Sudeste 16 Sudeste 0 -- -- 52
2020-09-02 10:00:00 17.3 8 Sudeste 16 Sudeste 0 -- -- 56
2020-09-02 09:00:00 14.1 3 Nordeste 14 Este 0 -- -- 59
2020-09-02 08:00:00 13.8 7 Sudeste 22 Sudeste 0 -- -- 59
2020-09-02 07:00:00 13.2 6 Sudeste 15 Sudeste 0 -- -- 69
2020-09-02 06:00:00 10.5 0 Calma 5 Noroeste 0 -- -- 85
2020-09-02 05:00:00 11.2 0 Calma 5 Noroeste 0 -- -- 73
2020-09-02 04:00:00 13.1 0 Calma 18 Sudeste 0 -- -- 56
2020-09-02 03:00:00 15.9 12 Sudeste 19 Sudeste 0 -- -- 44
2020-09-02 02:00:00 16.1 6 Sudeste 19 Sudeste 0 -- -- 42
2020-09-02 01:00:00 13.4 3 Sur 9 Sudeste 0 -- -- 51
2020-09-02 00:00:00 15.1 4 Sur 6 Sudeste 0 -- -- 48
2020-09-01 23:00:00 15.2 3 Sudeste 5 Sur 0 -- -- 53
2020-09-01 22:00:00 15.8 0 Calma 3 Sur 0 -- -- 53
2020-09-01 21:00:00 17.4 0 Calma 2 Sudoeste 0 -- -- 50
2020-09-01 20:00:00 20 0 Calma 8 Norte 0 -- -- 52
2020-09-01 19:00:00 21.4 4 Norte 10 Nordeste 0 -- -- 32
2020-09-01 18:00:00 22.4 5 Nordeste 13 Norte 0 -- -- 33
2020-09-01 17:00:00 22.9 9 Norte 19 Noroeste 0 -- -- 31
2020-09-01 16:00:00 23.5 10 Norte 17 Norte 0 -- -- 33
2020-09-01 15:00:00 23.6 4 Sudoeste 15 Sudoeste 0 -- -- 40
2020-09-01 14:00:00 19.8 8 Sudoeste 20 Sudoeste 0 -- -- 55
2020-09-01 13:00:00 19.3 4 Este 16 Este 0 -- -- 59
2020-09-01 12:00:00 18.4 8 Sur 12 Sur 0 -- -- 64
2020-09-01 11:00:00 17.8 2 Oeste 10 Noroeste 0 -- -- 66
2020-09-01 10:00:00 14.8 0 Calma 4 Norte 0 -- -- 85
2020-09-01 09:00:00 12.9 0 Calma 3 Sudeste 0 -- -- 94
2020-09-01 08:00:00 12 0 Calma 6 Sudeste 0 -- -- 93
2020-09-01 07:00:00 12 6 Sudeste 10 Sudeste 0 -- -- 91
2020-09-01 06:00:00 11.6 3 Nordeste 12 Sudeste 0 -- -- 90
2020-09-01 05:00:00 10.2 5 Este 11 Este 0 -- -- 93
2020-09-01 04:00:00 8.7 0 Calma 6 Este 0 -- -- 85
2020-09-01 03:00:00 9.5 0 Calma 12 Sudeste 0 -- -- 71
2020-09-01 02:00:00 10.6 10 Sur 22 Sur 0 -- -- 50
2020-09-01 01:00:00 10 3 Sur 5 Sur 0 -- -- 58
2020-09-01 00:00:00 10.4 0 Calma 3 Sur 0 -- -- 56
2020-08-31 23:00:00 11.1 0 Calma 3 Sudoeste 0 -- -- 57
2020-08-31 22:00:00 14.2 0 Calma 5 Norte 0 -- -- 48
2020-08-31 21:00:00 17.8 2 Oeste 12 Noroeste 0 -- -- 41
2020-08-31 20:00:00 23.8 5 Sudoeste 16 Oeste 0 -- -- 25
2020-08-31 19:00:00 24.5 6 Noroeste 19 Noroeste 0 -- -- 24
2020-08-31 18:00:00 24.8 7 Noroeste 16 Noroeste 0 -- -- 22
2020-08-31 17:00:00 25 6 Sudoeste 18 Sur 0 -- -- 26
2020-08-31 16:00:00 24 6 Sur 15 Noroeste 0 -- -- 31
2020-08-31 15:00:00 24 4 Noroeste 14 Sudoeste 0 -- -- 27
2020-08-31 14:00:00 22.5 5 Oeste 22 Oeste 0 -- -- 29
2020-08-31 13:00:00 21.2 4 Norte 14 Nordeste 0 -- -- 36
2020-08-31 12:00:00 19.6 6 Noroeste 15 Oeste 0 -- -- 40
2020-08-31 11:00:00 18.1 5 Sudeste 16 Sur 0 -- -- 45
2020-08-31 10:00:00 14.3 8 Sudeste 14 Sudeste 0 -- -- 58
2020-08-31 09:00:00 8.9 0 Calma 4 Norte 0 -- -- 73
2020-08-31 08:00:00 5.9 0 Calma 6 Sur 0 -- -- 83
2020-08-31 07:00:00 6 3 Sur 8 Sudeste 0 -- -- 82
2020-08-31 06:00:00 7.3 0 Calma 9 Este 0 -- -- 76
2020-08-31 05:00:00 8.9 5 Este 9 Este 0 -- -- 70
2020-08-31 04:00:00 9.6 2 Este 12 Sudeste 0 -- -- 66
2020-08-31 03:00:00 8.7 3 Este 10 Sudeste 0 -- -- 69
2020-08-31 02:00:00 8.2 0 Calma 7 Norte 0 -- -- 67
2020-08-31 01:00:00 8.5 0 Calma 6 Sudeste 0 -- -- 60
2020-08-31 00:00:00 8.8 2 Noroeste 5 Nordeste 0 -- -- 57
2020-08-30 23:00:00 10.3 0 Calma 6 Norte 0 -- -- 52
2020-08-30 22:00:00 13.6 2 Norte 9 Noroeste 0 -- -- 45
2020-08-30 21:00:00 16.8 5 Noroeste 24 Noroeste 0 -- -- 34
2020-08-30 20:00:00 21 9 Noroeste 23 Noroeste 0 -- -- 27
2020-08-30 19:00:00 21.9 13 Noroeste 25 Noroeste 0 -- -- 24
2020-08-30 18:00:00 22.8 12 Norte 40 Noroeste 0 -- -- 24
2020-08-30 17:00:00 22.3 14 Norte 27 Norte 0 -- -- 24
2020-08-30 16:00:00 22.2 10 Norte 23 Norte 0 -- -- 29
2020-08-30 15:00:00 21 10 Noroeste 23 Noroeste 0 -- -- 31
2020-08-30 14:00:00 19.7 12 Norte 26 Norte 0 -- -- 33
2020-08-30 13:00:00 18.7 11 Norte 25 Norte 0 -- -- 38
2020-08-30 12:00:00 17.4 11 Norte 26 Norte 0 -- -- 39
2020-08-30 11:00:00 14.8 11 Norte 30 Norte 0 -- -- 48
2020-08-30 10:00:00 11.4 12 Norte 26 Norte 0 -- -- 61
2020-08-30 09:00:00 8.1 7 Norte 14 Norte 0 -- -- 76
2020-08-30 08:00:00 6.5 4 Nordeste 11 Noroeste 0 -- -- 83
2020-08-30 07:00:00 5.6 0 Calma 4 Noroeste 0 -- -- 84
2020-08-30 06:00:00 7.6 0 Calma 10 Norte 0 -- -- 75
2020-08-30 05:00:00 8.9 5 Norte 12 Norte 0 -- -- 73
2020-08-30 04:00:00 9.7 6 Norte 13 Norte 0 -- -- 72
2020-08-30 03:00:00 10.5 3 Norte 14 Nordeste 0 -- -- 68
2020-08-30 02:00:00 11.3 9 Norte 21 Norte 0 -- -- 62
2020-08-30 01:00:00 12.1 10 Norte 20 Norte 0 -- -- 58
2020-08-30 00:00:00 12.9 8 Norte 23 Norte 0 -- -- 54
2020-08-29 23:00:00 13.9 12 Norte 30 Norte 0 -- -- 51
2020-08-29 22:00:00 14.9 17 Norte 40 Norte 0 -- -- 46
2020-08-29 21:00:00 17 17 Norte 41 Norte 0 -- -- 40
2020-08-29 20:00:00 18.8 14 Noroeste 32 Noroeste 0 -- -- 32
2020-08-29 19:00:00 20.8 18 Noroeste 37 Noroeste 0 -- -- 31
2020-08-29 18:00:00 21.7 17 Norte 42 Noroeste 0 -- -- 28
2020-08-29 17:00:00 21.4 14 Norte 45 Noroeste 0 -- -- 30
2020-08-29 16:00:00 22.3 17 Noroeste 41 Noroeste 0 -- -- 29
2020-08-29 15:00:00 22 16 Norte 34 Norte 0 -- -- 29
2020-08-29 14:00:00 20.9 15 Norte 30 Norte 0 -- -- 34
2020-08-29 13:00:00 19.9 12 Norte 31 Norte 0 -- -- 38
2020-08-29 12:00:00 18.9 17 Norte 30 Norte 0 -- -- 44
2020-08-29 11:00:00 17 13 Norte 28 Noroeste 0 -- -- 54
2020-08-29 10:00:00 15.3 9 Norte 18 Norte 0 -- -- 64
2020-08-29 09:00:00 12.9 6 Norte 13 Nordeste 0 -- -- 78
2020-08-29 08:00:00 12.4 5 Norte 21 Nordeste 0 -- -- 82
2020-08-29 07:00:00 13.2 6 Norte 18 Nordeste 0 -- -- 79
2020-08-29 06:00:00 14.1 5 Noroeste 15 Noroeste 0 -- -- 79
2020-08-29 05:00:00 15 4 Noroeste 18 Norte 0 -- -- 75
2020-08-29 04:00:00 15.5 6 Norte 17 Noroeste 0 -- -- 54
2020-08-29 03:00:00 16.8 3 Noroeste 19 Oeste 0 -- -- 37
2020-08-29 02:00:00 16.5 4 Oeste 14 Oeste 0 -- -- 34
2020-08-29 01:00:00 18.7 7 Oeste 16 Noroeste 0 -- -- 28
2020-08-29 00:00:00 18.7 4 Oeste 12 Oeste 0 -- -- 35
2020-08-28 23:00:00 21.8 6 Oeste 13 Oeste 0 -- -- 32
2020-08-28 22:00:00 24 9 Noroeste 23 Noroeste 0 -- -- 32
2020-08-28 21:00:00 25.6 9 Noroeste 27 Oeste 0 -- -- 34
2020-08-28 20:00:00 28.3 15 Noroeste 40 Noroeste 0 -- -- 29
2020-08-28 19:00:00 29.8 19 Noroeste 36 Noroeste 0 -- -- 31
2020-08-28 18:00:00 30.2 17 Noroeste 29 Noroeste 0 -- -- 30
2020-08-28 17:00:00 31 13 Noroeste 35 Oeste 0 -- -- 28
2020-08-28 16:00:00 31.1 16 Oeste 33 Oeste 0 -- -- 29
2020-08-28 15:00:00 31.2 12 Noroeste 26 Noroeste 0 -- -- 31
2020-08-28 14:00:00 30.3 11 Noroeste 24 Oeste 0 -- -- 32
2020-08-28 13:00:00 28.8 6 Noroeste 14 Oeste 0 -- -- 37
2020-08-28 12:00:00 27.4 5 Oeste 15 Noroeste 0 -- -- 41
2020-08-28 11:00:00 25.1 3 Norte 10 Sur 0 -- -- 49
2020-08-28 10:00:00 21.9 5 Sur 9 Sur 0 -- -- 61
2020-08-28 09:00:00 19.2 2 Noroeste 16 Este 0 -- -- 71
2020-08-28 08:00:00 16.7 4 Este 10 Sudeste 0 -- -- 79
2020-08-28 07:00:00 16.9 4 Sudeste 8 Sur 0 -- -- 77
2020-08-28 06:00:00 17.6 5 Sudeste 13 Este 0 -- -- 75
2020-08-28 05:00:00 16.9 4 Sudeste 9 Sur 0 -- -- 76
2020-08-28 04:00:00 17.6 3 Sudeste 11 Este 0 -- -- 65
2020-08-28 03:00:00 18.7 2 Noroeste 9 Sur 0 -- -- 60
2020-08-28 02:00:00 22.8 6 Sudeste 28 Sudeste 0 -- -- 45
2020-08-28 01:00:00 23.1 15 Sur 28 Sur 0 -- -- 37
2020-08-28 00:00:00 18.4 2 Sudoeste 4 Sur 0 -- -- 49